Terminal Aerodrome Forecast
Issued by NWS King Salmon, AK

Home | Current Version | Previous Version | Text Only | Print | Product List | Glossary On
Versions: 1 2 3 4 5 6 7 8 9 10 11 12 13 14 15 16 17 18 19 20 21 22 23 24 25 26 27 28 29 30 31 32 33
000
FTAK31 PANC 260538
TAFAKN
TAF
PAKN 260538Z 2606/2706 28005KT P6SM VCSH SCT020 BKN050
     FM260800 VRB04KT P6SM SCT035 BKN060
     FM262000 16010KT P6SM FEW040 SCT080
     FM270500 17012KT P6SM SCT050 BKN080=

USA.gov is the U.S. government's official web portal to all federal, state and local government web resources and services.